createdAt,value
2019-02-06T00:02:22.077Z,98221.33
2019-02-06T00:04:49.481Z,98221.64
2019-02-06T00:07:16.884Z,98230.10
2019-02-06T00:09:44.312Z,98217.27
2019-02-06T00:12:11.750Z,98222.38
2019-02-06T00:14:40.014Z,98216.34
2019-02-06T00:17:07.808Z,98221.16
2019-02-06T00:19:35.259Z,98219.38
2019-02-06T00:22:02.707Z,98218.43
2019-02-06T00:24:30.163Z,98221.06
2019-02-06T00:26:57.682Z,98208.95
2019-02-06T00:29:25.110Z,98207.14
2019-02-06T00:31:52.570Z,98211.39
2019-02-06T00:34:20.007Z,98219.52
2019-02-06T00:36:47.408Z,98218.13
2019-02-06T00:39:14.985Z,98219.03
2019-02-06T00:41:42.717Z,98220.35
2019-02-06T00:44:10.143Z,98225.48
2019-02-06T00:46:38.201Z,98223.77
2019-02-06T00:49:05.603Z,98228.91
2019-02-06T00:51:33.097Z,98223.36
2019-02-06T00:54:00.500Z,98226.80
2019-02-06T00:56:27.917Z,98217.82
2019-02-06T00:58:55.342Z,98213.95
2019-02-06T01:01:22.767Z,98207.98
2019-02-06T01:03:50.227Z,98208.97
2019-02-06T01:06:17.635Z,98209.45
2019-02-06T01:08:45.035Z,98206.14
2019-02-06T01:11:12.449Z,98202.67
2019-02-06T01:13:39.850Z,98214.42
2019-02-06T01:16:07.346Z,98210.55
2019-02-06T01:18:34.794Z,98213.12
2019-02-06T01:21:02.203Z,98211.68
2019-02-06T01:23:29.670Z,98219.39
2019-02-06T01:25:57.091Z,98209.44
2019-02-06T01:28:24.478Z,98211.97
2019-02-06T01:30:51.894Z,98213.61
2019-02-06T01:33:19.346Z,98221.31
2019-02-06T01:35:50.018Z,98224.70
2019-02-06T01:38:15.125Z,98216.08
2019-02-06T01:40:42.559Z,98223.83
2019-02-06T01:43:09.970Z,98220.38
2019-02-06T01:45:37.396Z,98214.30
2019-02-06T01:48:04.818Z,98222.02
2019-02-06T01:50:32.223Z,98220.66
2019-02-06T01:52:59.639Z,98231.41
2019-02-06T01:55:27.038Z,98222.28
2019-02-06T01:57:54.441Z,98226.63
2019-02-06T02:00:22.764Z,98220.23
2019-02-06T02:02:50.176Z,98215.47
2019-02-06T02:05:17.576Z,98216.78
2019-02-06T02:07:44.992Z,98212.91
2019-02-06T02:10:12.421Z,98209.50
2019-02-06T02:12:39.850Z,98215.09
2019-02-06T02:15:08.006Z,98218.05
2019-02-06T02:17:35.396Z,98215.45
2019-02-06T02:20:02.805Z,98222.44
2019-02-06T02:22:30.384Z,98212.17
2019-02-06T02:24:57.809Z,98216.47
2019-02-06T02:27:25.225Z,98215.09
2019-02-06T02:29:52.642Z,98212.55
2019-02-06T02:32:20.070Z,98214.71
2019-02-06T02:34:47.483Z,98207.72
2019-02-06T02:37:15.634Z,98205.01
2019-02-06T02:39:43.063Z,98195.98
2019-02-06T02:42:10.508Z,98208.48
2019-02-06T02:44:37.920Z,98198.88
2019-02-06T02:47:05.334Z,98197.08
2019-02-06T02:49:33.007Z,98198.53
2019-02-06T02:52:00.435Z,98198.07
2019-02-06T02:54:27.853Z,98195.39
2019-02-06T02:56:55.267Z,98196.73
2019-02-06T02:59:22.760Z,98196.32
2019-02-06T03:01:51.954Z,98201.49
2019-02-06T03:04:19.361Z,98195.95
2019-02-06T03:06:46.778Z,98192.67
2019-02-06T03:09:14.192Z,98190.98
2019-02-06T03:11:41.614Z,98194.60
2019-02-06T03:14:09.035Z,98198.97
2019-02-06T03:16:36.462Z,98196.78
2019-02-06T03:19:03.860Z,98193.69
2019-02-06T03:21:32.051Z,98190.19
2019-02-06T03:23:59.480Z,98188.89
2019-02-06T03:26:27.326Z,98189.69
2019-02-06T03:28:54.732Z,98186.67
2019-02-06T03:31:22.275Z,98187.55
2019-02-06T03:33:49.686Z,98193.89
2019-02-06T03:36:17.090Z,98192.25
2019-02-06T03:38:44.544Z,98195.77
2019-02-06T03:41:12.007Z,98207.27
2019-02-06T03:43:39.534Z,98201.20
2019-02-06T03:46:06.947Z,98196.42
2019-02-06T03:48:34.359Z,98195.06
2019-02-06T03:51:01.768Z,98197.37
2019-02-06T03:53:29.666Z,98196.19
2019-02-06T03:55:57.216Z,98196.16
2019-02-06T03:58:24.633Z,98197.54
2019-02-06T04:00:52.166Z,98196.60
2019-02-06T04:03:19.564Z,98197.41
2019-02-06T04:05:46.989Z,98199.05
2019-02-06T04:08:14.436Z,98190.45
2019-02-06T04:10:41.866Z,98199.02
2019-02-06T04:13:09.284Z,98194.87
2019-02-06T04:15:36.717Z,98201.91
2019-02-06T04:18:04.153Z,98211.43
2019-02-06T04:20:31.583Z,98205.48
2019-02-06T04:22:59.001Z,98204.27
2019-02-06T04:25:26.420Z,98205.97
2019-02-06T04:27:53.851Z,98198.15
2019-02-06T04:30:21.248Z,98205.00
2019-02-06T04:32:48.658Z,98201.97
2019-02-06T04:35:16.094Z,98212.31
2019-02-06T04:37:43.502Z,98205.03
2019-02-06T04:40:12.685Z,98204.56
2019-02-06T04:42:40.104Z,98204.14
2019-02-06T04:45:07.573Z,98211.44
2019-02-06T04:47:35.022Z,98209.26
2019-02-06T04:50:02.425Z,98215.25
2019-02-06T04:52:30.291Z,98211.33
2019-02-06T04:54:57.704Z,98216.85
2019-02-06T04:57:25.102Z,98212.08
2019-02-06T04:59:52.549Z,98209.87
2019-02-06T05:02:19.999Z,98202.00
2019-02-06T05:04:47.394Z,98210.14
2019-02-06T05:07:19.385Z,98214.90
2019-02-06T05:09:42.222Z,98214.12
2019-02-06T05:12:09.753Z,98214.20
2019-02-06T05:14:37.095Z,98220.30
2019-02-06T05:17:04.563Z,98223.80
2019-02-06T05:19:32.006Z,98214.41
2019-02-06T05:21:59.434Z,98213.95
2019-02-06T05:24:26.830Z,98212.66
2019-02-06T05:26:54.259Z,98209.59
2019-02-06T05:29:21.658Z,98215.11
2019-02-06T05:31:49.083Z,98210.80
2019-02-06T05:34:16.508Z,98208.61
2019-02-06T05:36:43.918Z,98207.66
2019-02-06T05:39:11.360Z,98208.05
2019-02-06T05:41:39.274Z,98205.48
2019-02-06T05:44:06.764Z,98201.62
2019-02-06T05:46:34.125Z,98204.66
2019-02-06T05:49:01.564Z,98206.53
2019-02-06T05:51:29.845Z,98207.92
2019-02-06T05:53:57.287Z,98199.25
2019-02-06T05:56:24.677Z,98207.27
2019-02-06T05:58:52.125Z,98205.97
2019-02-06T06:01:19.581Z,98205.89
2019-02-06T06:03:47.106Z,98210.09
2019-02-06T06:06:14.689Z,98205.72
2019-02-06T06:08:42.120Z,98202.41
2019-02-06T06:11:09.928Z,98205.34
2019-02-06T06:13:37.346Z,98207.88
2019-02-06T06:16:04.760Z,98207.44
2019-02-06T06:18:32.202Z,98214.75
2019-02-06T06:20:59.601Z,98214.72
2019-02-06T06:23:27.127Z,98210.22
2019-02-06T06:25:54.535Z,98211.19
2019-02-06T06:28:22.364Z,98214.30
2019-02-06T06:30:49.840Z,98206.16
2019-02-06T06:33:17.261Z,98210.05
2019-02-06T06:35:44.672Z,98208.80
2019-02-06T06:38:12.111Z,98213.09
2019-02-06T06:40:39.532Z,98215.09
2019-02-06T06:43:06.962Z,98215.98
2019-02-06T06:45:35.886Z,98218.05
2019-02-06T06:48:03.511Z,98220.64
2019-02-06T06:50:30.947Z,98216.83
2019-02-06T06:52:58.366Z,98223.36
2019-02-06T06:55:26.635Z,98223.45
2019-02-06T06:57:54.820Z,98228.70
2019-02-06T07:00:30.998Z,98225.72
2019-02-06T07:02:58.726Z,98224.48
2019-02-06T07:05:26.201Z,98222.05
2019-02-06T07:07:53.644Z,98223.78
2019-02-06T07:10:21.100Z,98224.61
2019-02-06T07:12:48.511Z,98235.42
2019-02-06T07:15:21.329Z,98228.89
2019-02-06T07:17:48.847Z,98231.43
2019-02-06T07:20:16.735Z,98226.63
2019-02-06T07:22:44.199Z,98217.99
2019-02-06T07:25:11.671Z,98216.30
2019-02-06T07:27:39.709Z,98224.93
2019-02-06T07:30:07.133Z,98228.52
2019-02-06T07:32:36.351Z,98228.06
2019-02-06T07:35:02.106Z,98223.98
2019-02-06T07:37:29.724Z,98220.77
2019-02-06T07:39:57.166Z,98225.68
2019-02-06T07:42:24.620Z,98226.59
2019-02-06T07:44:52.055Z,98232.62
2019-02-06T07:47:19.456Z,98230.05
2019-02-06T07:49:46.873Z,98232.28
2019-02-06T07:52:14.405Z,98231.03
2019-02-06T07:54:41.815Z,98240.25
2019-02-06T07:57:09.216Z,98237.66
2019-02-06T07:59:36.626Z,98241.06
2019-02-06T08:02:04.034Z,98243.16
2019-02-06T08:04:31.443Z,98240.52
2019-02-06T08:06:58.879Z,98242.15
2019-02-06T08:09:26.289Z,98233.51
2019-02-06T08:11:53.695Z,98233.83
2019-02-06T08:14:21.111Z,98237.77
2019-02-06T08:16:48.600Z,98244.27
2019-02-06T08:19:16.006Z,98235.17
2019-02-06T08:21:43.445Z,98232.02
2019-02-06T08:24:10.865Z,98238.44
2019-02-06T08:26:38.285Z,98238.45
2019-02-06T08:29:05.698Z,98238.70
2019-02-06T08:31:33.109Z,98236.27
2019-02-06T08:34:00.512Z,98248.41
2019-02-06T08:36:27.937Z,98236.69
2019-02-06T08:38:55.777Z,98240.97
2019-02-06T08:41:22.830Z,98242.71
2019-02-06T08:43:50.252Z,98249.20
2019-02-06T08:46:17.675Z,98241.50
2019-02-06T08:48:45.083Z,98242.02
2019-02-06T08:51:12.519Z,98248.13
2019-02-06T08:53:39.938Z,98250.75
2019-02-06T08:56:07.389Z,98252.88
2019-02-06T08:58:34.816Z,98251.96
2019-02-06T09:01:02.598Z,98254.03
2019-02-06T09:03:30.090Z,98250.10
2019-02-06T09:05:57.506Z,98243.68
2019-02-06T09:08:24.921Z,98246.55
2019-02-06T09:10:52.367Z,98244.77
2019-02-06T09:13:19.835Z,98241.34
2019-02-06T09:15:47.546Z,98243.86
2019-02-06T09:18:15.058Z,98243.41
2019-02-06T09:20:42.490Z,98248.52
2019-02-06T09:23:09.882Z,98245.29
2019-02-06T09:25:37.344Z,98243.44
2019-02-06T09:28:04.858Z,98242.55
2019-02-06T09:30:33.489Z,98241.27
2019-02-06T09:33:00.913Z,98237.11
2019-02-06T09:35:28.311Z,98245.35
2019-02-06T09:37:55.720Z,98237.52
2019-02-06T09:40:23.149Z,98230.14
2019-02-06T09:42:50.636Z,98234.38
2019-02-06T09:45:18.089Z,98224.14
2019-02-06T09:47:45.492Z,98225.43
2019-02-06T09:53:06.819Z,98230.99
2019-02-06T09:55:34.199Z,98227.27
2019-02-06T09:58:01.642Z,98222.60
2019-02-06T10:00:32.857Z,98219.36
2019-02-06T10:03:00.291Z,98219.30
2019-02-06T10:05:27.872Z,98218.23
2019-02-06T10:07:55.821Z,98220.70
2019-02-06T10:10:23.930Z,98220.14
2019-02-06T10:12:51.435Z,98210.63
2019-02-06T10:15:27.796Z,98208.02
2019-02-06T10:17:55.190Z,98209.77
2019-02-06T10:20:23.420Z,98219.91
2019-02-06T10:22:50.841Z,98205.95
2019-02-06T10:25:18.259Z,98203.36
2019-02-06T10:27:46.260Z,98202.90
2019-02-06T10:30:15.374Z,98199.47
2019-02-06T10:32:42.786Z,98199.45
2019-02-06T10:35:10.296Z,98197.19
2019-02-06T10:37:37.746Z,98188.13
2019-02-06T10:40:05.199Z,98190.73
2019-02-06T10:42:32.660Z,98191.23
2019-02-06T10:45:00.320Z,98192.59
2019-02-06T10:47:27.696Z,98190.49
2019-02-06T10:49:55.124Z,98182.70
2019-02-06T10:52:22.656Z,98176.20
2019-02-06T10:54:50.104Z,98176.52
2019-02-06T10:57:17.507Z,98169.03
2019-02-06T10:59:44.924Z,98169.36
2019-02-06T11:02:12.409Z,98165.38
2019-02-06T11:04:39.834Z,98160.58
2019-02-06T11:07:08.179Z,98158.68
2019-02-06T11:09:45.713Z,98151.94
2019-02-06T11:12:02.283Z,98139.88
2019-02-06T11:14:29.756Z,98137.72
2019-02-06T11:16:57.162Z,98139.33
2019-02-06T11:19:24.592Z,98136.12
2019-02-06T11:21:52.071Z,98137.86
2019-02-06T11:24:19.502Z,98133.94
2019-02-06T11:26:46.910Z,98130.31
2019-02-06T11:29:14.509Z,98124.36
2019-02-06T11:31:42.058Z,98116.72
2019-02-06T11:34:09.501Z,98111.99
2019-02-06T11:36:36.925Z,98113.78
2019-02-06T11:39:04.380Z,98104.59
2019-02-06T11:41:31.834Z,98102.16
2019-02-06T11:43:59.234Z,98101.86
2019-02-06T11:46:26.693Z,98087.92
2019-02-06T11:48:54.142Z,98089.06
2019-02-06T11:51:24.390Z,98091.61
2019-02-06T11:53:49.095Z,98087.17
2019-02-06T11:56:16.553Z,98074.45
2019-02-06T11:58:44.009Z,98077.78
2019-02-06T12:01:11.425Z,98070.42
2019-02-06T12:03:38.859Z,98076.75
2019-02-06T12:06:06.345Z,98075.69
2019-02-06T12:08:33.775Z,98068.36
2019-02-06T12:11:01.186Z,98068.95
2019-02-06T12:13:28.594Z,98069.84
2019-02-06T12:15:56.182Z,98058.19
2019-02-06T12:18:23.585Z,98063.92
2019-02-06T12:20:51.024Z,98054.52
2019-02-06T12:23:18.747Z,98053.80
2019-02-06T12:25:46.161Z,98049.78
2019-02-06T12:28:14.616Z,98043.92
2019-02-06T12:30:42.081Z,98046.53
2019-02-06T12:33:09.474Z,98043.81
2019-02-06T12:35:36.930Z,98037.84
2019-02-06T12:38:04.394Z,98038.61
2019-02-06T12:40:31.833Z,98032.14
2019-02-06T12:42:59.408Z,98035.66
2019-02-06T12:45:26.828Z,98027.21
2019-02-06T12:47:54.767Z,98032.09
2019-02-06T12:50:22.372Z,98029.56
2019-02-06T12:52:50.134Z,98023.28
2019-02-06T12:55:19.612Z,98016.98
2019-02-06T12:57:46.408Z,98018.23
2019-02-06T13:00:18.272Z,98018.75
2019-02-06T13:02:45.687Z,98008.44
2019-02-06T13:05:13.115Z,98007.22
2019-02-06T13:07:40.509Z,98001.67
2019-02-06T13:10:08.848Z,98001.84
2019-02-06T13:12:36.998Z,97999.52
2019-02-06T13:15:04.425Z,97993.78
2019-02-06T13:17:31.920Z,97993.94
2019-02-06T13:19:59.390Z,97981.37
2019-02-06T13:22:26.831Z,97971.85
2019-02-06T13:24:54.286Z,97973.09
2019-02-06T13:27:21.736Z,97979.06
2019-02-06T13:29:49.151Z,97974.52
2019-02-06T13:32:16.562Z,97973.05
2019-02-06T13:34:43.975Z,97969.95
2019-02-06T13:37:11.417Z,97968.56
2019-02-06T13:39:38.827Z,97968.17
2019-02-06T13:42:06.943Z,97962.14
2019-02-06T13:44:34.366Z,97959.64
2019-02-06T13:47:01.770Z,97962.59
2019-02-06T13:49:29.167Z,97958.39
2019-02-06T13:51:56.574Z,97954.16
2019-02-06T13:54:24.007Z,97953.00
2019-02-06T13:56:51.470Z,97955.03
2019-02-06T13:59:18.887Z,97951.37
2019-02-06T14:01:46.373Z,97950.17
2019-02-06T14:04:13.793Z,97943.52
2019-02-06T14:06:41.198Z,97932.60
2019-02-06T14:09:08.595Z,97937.08
2019-02-06T14:11:36.227Z,97932.18
2019-02-06T14:14:03.761Z,97931.20
2019-02-06T14:16:31.171Z,97925.42
2019-02-06T14:18:58.596Z,97931.50
2019-02-06T14:21:26.065Z,97928.96
2019-02-06T14:23:53.482Z,97931.08
2019-02-06T14:26:28.692Z,97923.67
2019-02-06T14:31:54.902Z,97918.22
2019-02-06T14:34:28.202Z,97918.31
2019-02-06T14:39:52.887Z,97911.13
2019-02-06T14:45:22.166Z,97909.72
2019-02-06T14:48:14.373Z,97915.94
2019-02-06T14:50:44.154Z,97905.48
2019-02-06T14:56:38.270Z,97908.34
2019-02-06T15:02:10.154Z,97895.72
2019-02-06T15:04:40.218Z,97892.87
2019-02-06T15:10:23.979Z,97891.25
2019-02-06T15:12:52.971Z,97894.46
2019-02-06T15:15:33.735Z,97897.41
2019-02-06T15:18:16.207Z,97902.23
2019-02-06T15:23:51.102Z,97890.37
2019-02-06T15:26:24.141Z,97895.59
2019-02-06T15:28:59.175Z,97894.51
2019-02-06T15:34:39.251Z,97893.06
2019-02-06T15:37:13.267Z,97894.08
2019-02-06T15:39:50.437Z,97897.55
2019-02-06T15:42:22.544Z,97897.72
2019-02-06T15:44:56.763Z,97890.66
2019-02-06T15:47:37.755Z,97891.69
2019-02-06T15:50:08.677Z,97886.87
2019-02-06T15:52:47.812Z,97888.16
2019-02-06T15:55:20.968Z,97888.94
2019-02-06T15:57:55.773Z,97882.48
2019-02-06T16:00:31.508Z,97878.77
2019-02-06T16:02:59.159Z,97874.98
2019-02-06T16:05:36.825Z,97875.25
2019-02-06T16:11:12.567Z,97866.28
2019-02-06T16:16:35.781Z,97864.06
2019-02-06T16:19:08.831Z,97858.16
2019-02-06T16:21:52.219Z,97863.27
2019-02-06T16:24:10.873Z,97863.52
2019-02-06T16:26:57.552Z,97864.46
2019-02-06T16:29:46.782Z,97867.36
2019-02-06T16:32:21.751Z,97873.14
2019-02-06T16:38:02.609Z,97865.86
2019-02-06T16:40:41.669Z,97862.14
2019-02-06T16:46:28.528Z,97861.74
2019-02-06T16:49:17.584Z,97863.20
2019-02-06T16:51:47.819Z,97862.66
2019-02-06T16:54:22.816Z,97856.31
2019-02-06T16:56:51.378Z,97864.70
2019-02-06T16:59:35.772Z,97866.63
2019-02-06T17:02:09.856Z,97868.30
2019-02-06T17:04:54.919Z,97861.11
2019-02-06T17:10:39.929Z,97858.02
2019-02-06T17:13:12.016Z,97854.44
2019-02-06T17:16:00.962Z,97850.23
2019-02-06T17:18:36.746Z,97854.11
2019-02-06T17:21:20.023Z,97846.55
2019-02-06T17:27:02.216Z,97836.09
2019-02-06T17:32:39.260Z,97842.17
2019-02-06T17:35:17.265Z,97841.39
2019-02-06T17:37:50.125Z,97849.30
2019-02-06T17:40:40.976Z,97857.88
2019-02-06T17:43:20.032Z,97849.25
2019-02-06T17:45:49.849Z,97845.55
2019-02-06T17:48:27.956Z,97858.70
2019-02-06T17:51:11.231Z,97852.75
2019-02-06T17:53:39.419Z,97853.80
2019-02-06T17:56:06.860Z,97858.13
2019-02-06T17:58:34.326Z,97844.72
2019-02-06T18:01:01.732Z,97848.00
2019-02-06T18:03:29.173Z,97849.78
2019-02-06T18:05:56.589Z,97842.89
2019-02-06T18:08:24.096Z,97842.92
2019-02-06T18:10:51.514Z,97848.60
2019-02-06T18:13:18.988Z,97853.53
2019-02-06T18:15:46.411Z,97854.86
2019-02-06T18:18:13.868Z,97851.43
2019-02-06T18:20:41.314Z,97855.45
2019-02-06T18:23:08.800Z,97853.27
2019-02-06T18:25:36.205Z,97856.94
2019-02-06T18:28:03.723Z,97848.22
2019-02-06T18:30:31.143Z,97851.97
2019-02-06T18:32:59.295Z,97841.53
2019-02-06T18:35:26.705Z,97851.78
2019-02-06T18:37:54.153Z,97847.59
2019-02-06T18:40:22.975Z,97843.67
2019-02-06T18:42:49.799Z,97842.33
2019-02-06T18:45:17.220Z,97842.39
2019-02-06T18:47:44.644Z,97852.14
2019-02-06T18:50:12.825Z,97847.86
2019-02-06T18:52:40.439Z,97851.46
2019-02-06T18:55:07.866Z,97842.02
2019-02-06T18:57:35.355Z,97841.16
2019-02-06T19:00:02.822Z,97847.44
2019-02-06T19:02:30.540Z,97846.89
2019-02-06T19:04:58.073Z,97840.89
2019-02-06T19:07:26.151Z,97841.41
2019-02-06T19:09:53.690Z,97836.45
2019-02-06T19:12:21.109Z,97839.28
2019-02-06T19:14:48.765Z,97832.84
2019-02-06T19:17:16.163Z,97833.31
2019-02-06T19:19:45.072Z,97830.22
2019-02-06T19:22:10.996Z,97825.20
2019-02-06T19:24:38.476Z,97824.46
2019-02-06T19:27:05.883Z,97827.59
2019-02-06T19:29:33.291Z,97831.55
2019-02-06T19:32:00.802Z,97819.36
2019-02-06T19:34:28.134Z,97819.95
2019-02-06T19:36:56.040Z,97815.11
2019-02-06T19:39:24.550Z,97817.21
2019-02-06T19:41:51.982Z,97817.39
2019-02-06T19:44:19.569Z,97818.22
2019-02-06T19:46:47.012Z,97814.85
2019-02-06T19:49:14.429Z,97818.14
2019-02-06T19:51:41.980Z,97806.39
2019-02-06T19:54:09.608Z,97810.75
2019-02-06T19:56:37.043Z,97802.45
2019-02-06T19:59:04.457Z,97792.60
2019-02-06T20:01:31.932Z,97793.64
2019-02-06T20:03:59.338Z,97797.63
2019-02-06T20:06:28.675Z,97795.55
2019-02-06T20:08:56.130Z,97789.89
2019-02-06T20:11:23.579Z,97785.84
2019-02-06T20:13:51.042Z,97789.30
2019-02-06T20:16:18.459Z,97795.33
2019-02-06T20:18:45.869Z,97794.09
2019-02-06T20:21:13.405Z,97784.47
2019-02-06T20:23:40.813Z,97790.77
2019-02-06T20:26:08.236Z,97786.52
2019-02-06T20:28:35.698Z,97782.65
2019-02-06T20:31:03.124Z,97792.70
2019-02-06T20:33:30.534Z,97789.27
2019-02-06T20:35:57.937Z,97792.91
2019-02-06T20:38:25.902Z,97789.02
2019-02-06T20:40:53.371Z,97780.36
2019-02-06T20:43:22.408Z,97789.30
2019-02-06T20:45:48.403Z,97778.50
2019-02-06T20:48:15.815Z,97783.61
2019-02-06T20:50:43.260Z,97770.31
2019-02-06T20:53:10.706Z,97770.75
2019-02-06T20:55:38.216Z,97775.87
2019-02-06T20:58:05.643Z,97774.94
2019-02-06T21:00:48.461Z,97777.66
2019-02-06T21:03:15.899Z,97772.33
2019-02-06T21:05:43.336Z,97775.06
2019-02-06T21:08:10.764Z,97779.52
2019-02-06T21:10:38.213Z,97775.05
2019-02-06T21:13:06.196Z,97779.50
2019-02-06T21:15:33.636Z,97775.32
2019-02-06T21:18:01.045Z,97776.22
2019-02-06T21:20:28.514Z,97771.16
2019-02-06T21:22:56.035Z,97771.95
2019-02-06T21:25:23.464Z,97773.28
2019-02-06T21:27:50.889Z,97776.66
2019-02-06T21:30:24.002Z,97773.44
2019-02-06T21:32:51.481Z,97776.78
2019-02-06T21:35:18.911Z,97771.30
2019-02-06T21:37:46.325Z,97766.69
2019-02-06T21:40:20.281Z,97771.41
2019-02-06T21:42:46.691Z,97764.41
2019-02-06T21:45:14.139Z,97772.36
2019-02-06T21:47:41.560Z,97768.95
2019-02-06T21:50:10.373Z,97767.17
2019-02-06T21:52:37.953Z,97765.53
2019-02-06T21:55:05.359Z,97765.56
2019-02-06T21:57:32.785Z,97772.95
2019-02-06T22:00:00.218Z,97767.04
2019-02-06T22:02:27.839Z,97767.92
2019-02-06T22:04:55.247Z,97761.45
2019-02-06T22:07:22.917Z,97758.63
2019-02-06T22:09:50.672Z,97748.65
2019-02-06T22:12:18.081Z,97765.71
2019-02-06T22:14:45.630Z,97752.22
2019-02-06T22:17:13.086Z,97753.28
2019-02-06T22:19:40.501Z,97739.55
2019-02-06T22:22:07.989Z,97746.34
2019-02-06T22:24:35.421Z,97750.94
2019-02-06T22:27:02.821Z,97749.37
2019-02-06T22:29:30.227Z,97724.80
2019-02-06T22:31:57.628Z,97737.45
2019-02-06T22:34:25.054Z,97733.92
2019-02-06T22:36:52.657Z,97729.05
2019-02-06T22:39:20.115Z,97730.77
2019-02-06T22:41:47.531Z,97728.61
2019-02-06T22:44:14.967Z,97726.45
2019-02-06T22:46:42.382Z,97736.52
2019-02-06T22:49:09.791Z,97729.67
2019-02-06T22:51:37.225Z,97727.15
2019-02-06T22:54:04.675Z,97722.95
2019-02-06T22:56:32.079Z,97730.00
2019-02-06T22:58:59.595Z,97740.86
2019-02-06T23:01:27.065Z,97734.61
2019-02-06T23:03:54.472Z,97735.34
2019-02-06T23:06:21.943Z,97715.30
2019-02-06T23:08:49.337Z,97713.97
2019-02-06T23:11:16.762Z,97715.15
2019-02-06T23:13:44.164Z,97712.53
2019-02-06T23:16:11.675Z,97710.79
2019-02-06T23:18:39.086Z,97712.64
2019-02-06T23:21:06.505Z,97714.37
2019-02-06T23:23:33.927Z,97711.00
2019-02-06T23:26:01.325Z,97714.75
2019-02-06T23:28:29.627Z,97709.41
2019-02-06T23:30:57.125Z,97704.71
2019-02-06T23:33:24.532Z,97708.29
2019-02-06T23:35:51.938Z,97708.48
2019-02-06T23:38:19.362Z,97706.36
2019-02-06T23:40:46.931Z,97708.88
2019-02-06T23:43:14.335Z,97702.11
2019-02-06T23:45:41.905Z,97698.80
2019-02-06T23:48:09.557Z,97687.94
2019-02-06T23:50:36.952Z,97693.88
2019-02-06T23:53:04.371Z,97682.84
2019-02-06T23:55:32.464Z,97681.63
2019-02-06T23:57:59.893Z,97680.72
